sensor_id;sensor_type;location;lat;lon;timestamp;pressure;altitude;pressure_sealevel;temperature;humidity
15193;BME280;7697;51.630;7.484;2022-12-24T00:00:54;99748.88;;;11.49;100.00
15193;BME280;7697;51.630;7.484;2022-12-24T00:05:56;99778.47;;;11.46;100.00
15193;BME280;7697;51.630;7.484;2022-12-24T00:10:58;99783.06;;;11.39;100.00
15193;BME280;7697;51.630;7.484;2022-12-24T00:16:01;99799.19;;;11.38;100.00
15193;BME280;7697;51.630;7.484;2022-12-24T00:21:03;99814.53;;;11.36;100.00
15193;BME280;7697;51.630;7.484;2022-12-24T00:26:06;99817.03;;;11.31;100.00
15193;BME280;7697;51.630;7.484;2022-12-24T00:31:11;99821.16;;;11.26;100.00
15193;BME280;7697;51.630;7.484;2022-12-24T00:36:14;99816.75;;;11.20;100.00
15193;BME280;7697;51.630;7.484;2022-12-24T00:41:16;99831.41;;;11.23;100.00
15193;BME280;7697;51.630;7.484;2022-12-24T00:46:30;99831.41;;;11.23;100.00
15193;BME280;7697;51.630;7.484;2022-12-24T00:51:33;99824.03;;;11.25;100.00
15193;BME280;7697;51.630;7.484;2022-12-24T00:56:34;99832.63;;;11.20;100.00
15193;BME280;7697;51.630;7.484;2022-12-24T01:01:37;99845.88;;;11.20;100.00
15193;BME280;7697;51.630;7.484;2022-12-24T01:06:39;99859.13;;;11.20;100.00
15193;BME280;7697;51.630;7.484;2022-12-24T01:11:41;99864.75;;;11.31;100.00
15193;BME280;7697;51.630;7.484;2022-12-24T01:16:44;99861.38;;;11.23;100.00
15193;BME280;7697;51.630;7.484;2022-12-24T01:21:45;99877.06;;;11.25;100.00
15193;BME280;7697;51.630;7.484;2022-12-24T01:26:47;99875.25;;;11.19;100.00
15193;BME280;7697;51.630;7.484;2022-12-24T01:31:50;99898.91;;;11.20;100.00
15193;BME280;7697;51.630;7.484;2022-12-24T01:36:52;99888.97;;;11.16;100.00
15193;BME280;7697;51.630;7.484;2022-12-24T01:41:54;99905.09;;;11.14;100.00
15193;BME280;7697;51.630;7.484;2022-12-24T01:47:17;99917.91;;;11.17;100.00
15193;BME280;7697;51.630;7.484;2022-12-24T01:52:22;99918.63;;;11.06;100.00
15193;BME280;7697;51.630;7.484;2022-12-24T01:57:27;99923.53;;;11.03;100.00
15193;BME280;7697;51.630;7.484;2022-12-24T02:02:32;99930.25;;;11.05;100.00
15193;BME280;7697;51.630;7.484;2022-12-24T02:07:35;99930.66;;;11.02;100.00
15193;BME280;7697;51.630;7.484;2022-12-24T02:12:38;99944.53;;;11.04;100.00
15193;BME280;7697;51.630;7.484;2022-12-24T02:17:46;99950.56;;;11.11;100.00
15193;BME280;7697;51.630;7.484;2022-12-24T02:23:06;99966.09;;;11.08;100.00
15193;BME280;7697;51.630;7.484;2022-12-24T02:28:17;99967.34;;;11.05;100.00
15193;BME280;7697;51.630;7.484;2022-12-24T02:33:29;99972.03;;;11.03;100.00
15193;BME280;7697;51.630;7.484;2022-12-24T02:38:38;100000.16;;;11.04;100.00
15193;BME280;7697;51.630;7.484;2022-12-24T02:43:44;100001.19;;;11.03;100.00
15193;BME280;7697;51.630;7.484;2022-12-24T02:48:49;100016.06;;;11.04;100.00
15193;BME280;7697;51.630;7.484;2022-12-24T02:53:51;100016.47;;;11.01;100.00
15193;BME280;7697;51.630;7.484;2022-12-24T02:59:02;100012.25;;;11.00;100.00
15193;BME280;7697;51.630;7.484;2022-12-24T03:04:18;100034.00;;;11.02;100.00
15193;BME280;7697;51.630;7.484;2022-12-24T03:09:48;100024.88;;;10.98;100.00
15193;BME280;7697;51.630;7.484;2022-12-24T03:14:52;100038.13;;;10.98;100.00
15193;BME280;7697;51.630;7.484;2022-12-24T03:19:55;100028.22;;;10.87;100.00
15193;BME280;7697;51.630;7.484;2022-12-24T03:24:57;100033.53;;;10.87;100.00
15193;BME280;7697;51.630;7.484;2022-12-24T03:29:59;100027.41;;;10.86;100.00
15193;BME280;7697;51.630;7.484;2022-12-24T03:35:02;100048.00;;;10.84;100.00
15193;BME280;7697;51.630;7.484;2022-12-24T03:40:07;100043.16;;;10.75;100.00
15193;BME280;7697;51.630;7.484;2022-12-24T03:45:10;100064.97;;;10.77;100.00
15193;BME280;7697;51.630;7.484;2022-12-24T03:50:13;100058.03;;;10.76;100.00
15193;BME280;7697;51.630;7.484;2022-12-24T03:55:16;100068.22;;;10.79;100.00
15193;BME280;7697;51.630;7.484;2022-12-24T04:00:18;100075.13;;;10.80;100.00
15193;BME280;7697;51.630;7.484;2022-12-24T04:05:22;100062.72;;;10.74;100.00
15193;BME280;7697;51.630;7.484;2022-12-24T04:10:23;100074.38;;;10.73;100.00
15193;BME280;7697;51.630;7.484;2022-12-24T04:15:27;100065.81;;;10.71;100.00
15193;BME280;7697;51.630;7.484;2022-12-24T04:20:30;100065.38;;;10.74;100.00
15193;BME280;7697;51.630;7.484;2022-12-24T04:25:32;100075.97;;;10.74;100.00
15193;BME280;7697;51.630;7.484;2022-12-24T04:30:33;100089.19;;;10.80;100.00
15193;BME280;7697;51.630;7.484;2022-12-24T04:35:39;100087.94;;;10.83;100.00
15193;BME280;7697;51.630;7.484;2022-12-24T04:40:41;100085.06;;;10.84;100.00
15193;BME280;7697;51.630;7.484;2022-12-24T04:45:43;100097.50;;;10.84;100.00
15193;BME280;7697;51.630;7.484;2022-12-24T04:50:46;100092.59;;;10.87;100.00
15193;BME280;7697;51.630;7.484;2022-12-24T04:55:48;100099.91;;;10.92;100.00
15193;BME280;7697;51.630;7.484;2022-12-24T05:00:50;100104.03;;;10.88;100.00
15193;BME280;7697;51.630;7.484;2022-12-24T05:06:00;100099.47;;;10.95;100.00
15193;BME280;7697;51.630;7.484;2022-12-24T05:11:02;100113.34;;;10.97;100.00
15193;BME280;7697;51.630;7.484;2022-12-24T05:16:04;100122.31;;;10.96;100.00
15193;BME280;7697;51.630;7.484;2022-12-24T05:21:09;100124.97;;;10.96;100.00
15193;BME280;7697;51.630;7.484;2022-12-24T05:26:14;100121.69;;;10.94;100.00
15193;BME280;7697;51.630;7.484;2022-12-24T05:31:24;100127.81;;;10.95;100.00
15193;BME280;7697;51.630;7.484;2022-12-24T05:36:28;100134.53;;;10.97;100.00
15193;BME280;7697;51.630;7.484;2022-12-24T05:41:31;100130.88;;;10.98;100.00
15193;BME280;7697;51.630;7.484;2022-12-24T05:46:32;100123.53;;;11.00;100.00
15193;BME280;7697;51.630;7.484;2022-12-24T05:51:35;100138.81;;;10.98;100.00
15193;BME280;7697;51.630;7.484;2022-12-24T05:56:39;100136.97;;;10.99;100.00
15193;BME280;7697;51.630;7.484;2022-12-24T06:01:41;100143.50;;;10.96;100.00
15193;BME280;7697;51.630;7.484;2022-12-24T06:06:46;100153.25;;;11.02;100.00
15193;BME280;7697;51.630;7.484;2022-12-24T06:11:47;100159.81;;;11.00;100.00
15193;BME280;7697;51.630;7.484;2022-12-24T06:16:49;100159.00;;;10.99;100.00
15193;BME280;7697;51.630;7.484;2022-12-24T06:21:52;100150.63;;;10.96;100.00
15193;BME280;7697;51.630;7.484;2022-12-24T06:26:54;100156.16;;;10.94;100.00
15193;BME280;7697;51.630;7.484;2022-12-24T06:31:56;100170.41;;;11.00;100.00
15193;BME280;7697;51.630;7.484;2022-12-24T06:36:59;100174.88;;;10.99;100.00
15193;BME280;7697;51.630;7.484;2022-12-24T06:42:01;100182.59;;;11.01;100.00
15193;BME280;7697;51.630;7.484;2022-12-24T06:47:02;100188.72;;;11.01;100.00
15193;BME280;7697;51.630;7.484;2022-12-24T06:52:07;100196.03;;;11.06;100.00
15193;BME280;7697;51.630;7.484;2022-12-24T06:57:09;100209.09;;;11.07;100.00
15193;BME280;7697;51.630;7.484;2022-12-24T07:02:10;100203.78;;;11.07;100.00
15193;BME280;7697;51.630;7.484;2022-12-24T07:07:13;100211.53;;;11.02;100.00
15193;BME280;7697;51.630;7.484;2022-12-24T07:12:15;100216.03;;;11.08;100.00
15193;BME280;7697;51.630;7.484;2022-12-24T07:17:17;100221.69;;;11.12;100.00
15193;BME280;7697;51.630;7.484;2022-12-24T07:22:20;100218.06;;;11.06;100.00
15193;BME280;7697;51.630;7.484;2022-12-24T07:27:22;100222.13;;;11.09;100.00
15193;BME280;7697;51.630;7.484;2022-12-24T07:32:25;100227.81;;;11.12;100.00
15193;BME280;7697;51.630;7.484;2022-12-24T07:37:28;100237.78;;;11.17;100.00
15193;BME280;7697;51.630;7.484;2022-12-24T07:42:33;100238.81;;;11.16;100.00
15193;BME280;7697;51.630;7.484;2022-12-24T07:47:34;100248.59;;;11.15;100.00
15193;BME280;7697;51.630;7.484;2022-12-24T07:52:37;100256.09;;;11.25;100.00
15193;BME280;7697;51.630;7.484;2022-12-24T07:57:39;100255.69;;;11.21;100.00
15193;BME280;7697;51.630;7.484;2022-12-24T08:02:41;100247.75;;;11.21;100.00
15193;BME280;7697;51.630;7.484;2022-12-24T08:07:44;100256.75;;;11.14;100.00
15193;BME280;7697;51.630;7.484;2022-12-24T08:12:45;100250.81;;;11.18;100.00
15193;BME280;7697;51.630;7.484;2022-12-24T08:17:47;100300.34;;;11.24;100.00
15193;BME280;7697;51.630;7.484;2022-12-24T08:22:51;100304.44;;;11.27;100.00
15193;BME280;7697;51.630;7.484;2022-12-24T08:27:53;100316.25;;;11.24;100.00
15193;BME280;7697;51.630;7.484;2022-12-24T08:32:54;100309.94;;;11.25;100.00
15193;BME280;7697;51.630;7.484;2022-12-24T08:37:58;100327.47;;;11.26;100.00
15193;BME280;7697;51.630;7.484;2022-12-24T08:43:00;100325.81;;;11.32;100.00
15193;BME280;7697;51.630;7.484;2022-12-24T08:48:02;100334.16;;;11.29;100.00
15193;BME280;7697;51.630;7.484;2022-12-24T08:53:05;100352.53;;;11.31;100.00
15193;BME280;7697;51.630;7.484;2022-12-24T08:58:07;100332.94;;;11.32;100.00
15193;BME280;7697;51.630;7.484;2022-12-24T09:03:13;100359.63;;;11.37;100.00
15193;BME280;7697;51.630;7.484;2022-12-24T09:08:18;100360.22;;;11.39;100.00
15193;BME280;7697;51.630;7.484;2022-12-24T09:13:21;100368.41;;;11.44;100.00
15193;BME280;7697;51.630;7.484;2022-12-24T09:18:24;100391.25;;;11.45;100.00
15193;BME280;7697;51.630;7.484;2022-12-24T09:23:27;100390.38;;;11.51;100.00
15193;BME280;7697;51.630;7.484;2022-12-24T09:28:29;100401.78;;;11.58;100.00
15193;BME280;7697;51.630;7.484;2022-12-24T09:33:33;100416.03;;;11.63;100.00
15193;BME280;7697;51.630;7.484;2022-12-24T09:38:37;100431.16;;;11.63;100.00
15193;BME280;7697;51.630;7.484;2022-12-24T09:43:44;100435.63;;;11.69;100.00
15193;BME280;7697;51.630;7.484;2022-12-24T09:48:51;100436.44;;;11.76;100.00
15193;BME280;7697;51.630;7.484;2022-12-24T09:53:57;100451.34;;;11.77;100.00
15193;BME280;7697;51.630;7.484;2022-12-24T09:59:02;100452.34;;;11.76;100.00
15193;BME280;7697;51.630;7.484;2022-12-24T10:04:09;100436.22;;;11.71;100.00
15193;BME280;7697;51.630;7.484;2022-12-24T10:09:19;100452.34;;;11.76;100.00
15193;BME280;7697;51.630;7.484;2022-12-24T10:14:34;100466.03;;;11.80;100.00
15193;BME280;7697;51.630;7.484;2022-12-24T10:19:44;100462.56;;;11.79;100.00
15193;BME280;7697;51.630;7.484;2022-12-24T10:24:56;100479.47;;;11.85;100.00
15193;BME280;7697;51.630;7.484;2022-12-24T10:30:05;100471.91;;;11.88;100.00
15193;BME280;7697;51.630;7.484;2022-12-24T10:35:18;100475.56;;;11.94;100.00
15193;BME280;7697;51.630;7.484;2022-12-24T10:40:29;100483.69;;;11.99;100.00
15193;BME280;7697;51.630;7.484;2022-12-24T10:45:36;100476.78;;;11.98;100.00
15193;BME280;7697;51.630;7.484;2022-12-24T10:50:43;100469.19;;;12.01;100.00
15193;BME280;7697;51.630;7.484;2022-12-24T10:55:49;100471.53;;;12.23;100.00
15193;BME280;7697;51.630;7.484;2022-12-24T11:00:51;100472.47;;;12.35;100.00
15193;BME280;7697;51.630;7.484;2022-12-24T11:06:05;100477.38;;;12.38;100.00
15193;BME280;7697;51.630;7.484;2022-12-24T11:11:11;100455.53;;;12.36;100.00
15193;BME280;7697;51.630;7.484;2022-12-24T11:16:20;100466.75;;;12.38;100.00
15193;BME280;7697;51.630;7.484;2022-12-24T11:21:25;100468.38;;;12.39;100.00
15193;BME280;7697;51.630;7.484;2022-12-24T11:26:29;100468.38;;;12.39;100.00
15193;BME280;7697;51.630;7.484;2022-12-24T11:31:32;100470.28;;;12.32;100.00
15193;BME280;7697;51.630;7.484;2022-12-24T11:36:36;100461.91;;;12.28;100.00
15193;BME280;7697;51.630;7.484;2022-12-24T11:41:39;100453.56;;;12.25;100.00
15193;BME280;7697;51.630;7.484;2022-12-24T11:46:42;100460.66;;;12.31;100.00
15193;BME280;7697;51.630;7.484;2022-12-24T11:52:02;100462.66;;;12.42;99.54
15193;BME280;7697;51.630;7.484;2022-12-24T11:57:14;100462.66;;;12.42;99.61
15193;BME280;7697;51.630;7.484;2022-12-24T12:02:20;100451.63;;;12.38;99.03
15193;BME280;7697;51.630;7.484;2022-12-24T12:07:26;100455.91;;;12.39;99.30
15193;BME280;7697;51.630;7.484;2022-12-24T12:12:33;100459.00;;;12.36;98.85
15193;BME280;7697;51.630;7.484;2022-12-24T12:17:41;100470.41;;;12.44;99.24
15193;BME280;7697;51.630;7.484;2022-12-24T12:22:49;100481.00;;;12.50;98.87
15193;BME280;7697;51.630;7.484;2022-12-24T12:27:57;100489.56;;;12.52;99.27
15193;BME280;7697;51.630;7.484;2022-12-24T12:33:04;100491.66;;;12.44;98.65
15193;BME280;7697;51.630;7.484;2022-12-24T12:38:11;100502.91;;;12.39;98.27
15193;BME280;7697;51.630;7.484;2022-12-24T12:43:24;100513.94;;;12.36;97.71
15193;BME280;7697;51.630;7.484;2022-12-24T12:48:56;100510.16;;;12.25;97.92
15193;BME280;7697;51.630;7.484;2022-12-24T12:54:21;100515.66;;;12.24;97.76
15193;BME280;7697;51.630;7.484;2022-12-24T12:59:33;100522.00;;;12.23;98.46
15193;BME280;7697;51.630;7.484;2022-12-24T13:05:16;100524.03;;;12.21;98.81
15193;BME280;7697;51.630;7.484;2022-12-24T13:16:05;100535.00;;;12.37;97.89
15193;BME280;7697;51.630;7.484;2022-12-24T13:21:15;100546.38;;;12.51;97.61
15193;BME280;7697;51.630;7.484;2022-12-24T13:26:17;100549.44;;;12.48;97.36
15193;BME280;7697;51.630;7.484;2022-12-24T13:31:27;100556.19;;;12.44;96.58
15193;BME280;7697;51.630;7.484;2022-12-24T13:37:01;100556.22;;;12.37;96.62
15193;BME280;7697;51.630;7.484;2022-12-24T13:42:05;100558.31;;;12.29;96.38
15193;BME280;7697;51.630;7.484;2022-12-24T13:47:19;100570.53;;;12.36;96.12
15193;BME280;7697;51.630;7.484;2022-12-24T13:52:25;100581.59;;;12.33;96.83
15193;BME280;7697;51.630;7.484;2022-12-24T13:57:33;100585.41;;;12.51;96.99
15193;BME280;7697;51.630;7.484;2022-12-24T14:02:43;100595.75;;;12.65;96.38
15193;BME280;7697;51.630;7.484;2022-12-24T14:07:48;100588.34;;;12.74;95.80
15193;BME280;7697;51.630;7.484;2022-12-24T14:12:51;100580.81;;;12.64;94.78
15193;BME280;7697;51.630;7.484;2022-12-24T14:17:55;100602.91;;;12.65;94.27
15193;BME280;7697;51.630;7.484;2022-12-24T14:22:57;100599.88;;;12.55;93.90
15193;BME280;7697;51.630;7.484;2022-12-24T14:28:04;100600.72;;;12.49;94.33
15193;BME280;7697;51.630;7.484;2022-12-24T14:33:27;100610.16;;;12.38;94.45
15193;BME280;7697;51.630;7.484;2022-12-24T14:38:29;100611.84;;;12.26;94.77
15193;BME280;7697;51.630;7.484;2022-12-24T14:43:43;100620.66;;;12.20;94.97
15193;BME280;7697;51.630;7.484;2022-12-24T14:48:52;100626.59;;;12.09;94.86
15193;BME280;7697;51.630;7.484;2022-12-24T14:54:12;100628.88;;;11.98;94.57
15193;BME280;7697;51.630;7.484;2022-12-24T14:59:18;100645.00;;;11.90;96.09
15193;BME280;7697;51.630;7.484;2022-12-24T15:04:22;100654.81;;;11.83;96.39
15193;BME280;7697;51.630;7.484;2022-12-24T15:09:25;100668.28;;;11.75;95.97
15193;BME280;7697;51.630;7.484;2022-12-24T15:14:40;100666.81;;;11.73;96.03
15193;BME280;7697;51.630;7.484;2022-12-24T15:19:46;100668.03;;;11.63;96.54
15193;BME280;7697;51.630;7.484;2022-12-24T15:24:49;100676.81;;;11.57;96.01
15193;BME280;7697;51.630;7.484;2022-12-24T15:29:53;100687.63;;;11.56;96.02
15193;BME280;7697;51.630;7.484;2022-12-24T15:34:57;100693.56;;;11.58;96.22
15193;BME280;7697;51.630;7.484;2022-12-24T15:40:03;100703.16;;;11.52;96.53
15193;BME280;7697;51.630;7.484;2022-12-24T15:45:12;100700.50;;;11.52;96.47
15193;BME280;7697;51.630;7.484;2022-12-24T15:50:23;100702.53;;;11.44;96.90
15193;BME280;7697;51.630;7.484;2022-12-24T15:55:27;100714.34;;;11.48;96.92
15193;BME280;7697;51.630;7.484;2022-12-24T16:00:30;100710.66;;;11.36;97.17
15193;BME280;7697;51.630;7.484;2022-12-24T16:05:34;100731.88;;;11.36;97.24
15193;BME280;7697;51.630;7.484;2022-12-24T16:10:38;100733.47;;;11.30;97.55
15193;BME280;7697;51.630;7.484;2022-12-24T16:15:48;100726.97;;;11.26;97.58
15193;BME280;7697;51.630;7.484;2022-12-24T16:20:53;100728.09;;;11.10;97.57
15193;BME280;7697;51.630;7.484;2022-12-24T16:25:57;100728.09;;;11.04;98.29
15193;BME280;7697;51.630;7.484;2022-12-24T16:31:14;100721.13;;;10.89;98.10
15193;BME280;7697;51.630;7.484;2022-12-24T16:36:17;100732.06;;;10.80;98.35
15193;BME280;7697;51.630;7.484;2022-12-24T16:41:18;100732.84;;;10.74;98.22
15193;BME280;7697;51.630;7.484;2022-12-24T16:46:21;100731.19;;;10.66;98.18
15193;BME280;7697;51.630;7.484;2022-12-24T16:51:23;100729.94;;;10.56;97.82
15193;BME280;7697;51.630;7.484;2022-12-24T16:56:24;100742.53;;;10.53;98.02
15193;BME280;7697;51.630;7.484;2022-12-24T17:01:28;100751.44;;;10.46;98.07
15193;BME280;7697;51.630;7.484;2022-12-24T17:06:29;100757.69;;;10.38;98.27
15193;BME280;7697;51.630;7.484;2022-12-24T17:11:31;100756.78;;;10.25;98.54
15193;BME280;7697;51.630;7.484;2022-12-24T17:16:34;100759.81;;;10.22;98.28
15193;BME280;7697;51.630;7.484;2022-12-24T17:21:36;100787.84;;;10.16;98.54
15193;BME280;7697;51.630;7.484;2022-12-24T17:26:38;100769.09;;;10.11;98.43
15193;BME280;7697;51.630;7.484;2022-12-24T17:31:42;100768.97;;;9.98;99.00
15193;BME280;7697;51.630;7.484;2022-12-24T17:36:44;100771.16;;;9.94;99.26
15193;BME280;7697;51.630;7.484;2022-12-24T17:41:46;100769.09;;;9.90;99.49
15193;BME280;7697;51.630;7.484;2022-12-24T17:46:49;100776.66;;;9.93;99.56
15193;BME280;7697;51.630;7.484;2022-12-24T17:51:50;100777.28;;;9.95;99.43
15193;BME280;7697;51.630;7.484;2022-12-24T17:56:52;100763.75;;;9.83;99.37
15193;BME280;7697;51.630;7.484;2022-12-24T18:01:55;100766.31;;;9.76;99.42
15193;BME280;7697;51.630;7.484;2022-12-24T18:06:57;100777.28;;;9.73;99.97
15193;BME280;7697;51.630;7.484;2022-12-24T18:12:00;100772.38;;;9.70;99.98
15193;BME280;7697;51.630;7.484;2022-12-24T18:17:03;100781.31;;;9.69;99.64
15193;BME280;7697;51.630;7.484;2022-12-24T18:22:05;100787.72;;;9.60;99.96
15193;BME280;7697;51.630;7.484;2022-12-24T18:27:06;100786.00;;;9.53;99.80
15193;BME280;7697;51.630;7.484;2022-12-24T18:32:09;100772.47;;;9.41;100.00
15193;BME280;7697;51.630;7.484;2022-12-24T18:37:12;100776.69;;;9.35;100.00
15193;BME280;7697;51.630;7.484;2022-12-24T18:42:13;100785.06;;;9.39;100.00
15193;BME280;7697;51.630;7.484;2022-12-24T18:47:16;100781.16;;;9.35;100.00
15193;BME280;7697;51.630;7.484;2022-12-24T18:52:19;100792.81;;;9.26;100.00
15193;BME280;7697;51.630;7.484;2022-12-24T18:57:20;100798.94;;;9.26;100.00
15193;BME280;7697;51.630;7.484;2022-12-24T19:02:23;100802.41;;;9.27;100.00
15193;BME280;7697;51.630;7.484;2022-12-24T19:07:25;100784.44;;;9.22;100.00
15193;BME280;7697;51.630;7.484;2022-12-24T19:12:27;100787.47;;;9.19;100.00
15193;BME280;7697;51.630;7.484;2022-12-24T19:17:30;100786.00;;;9.17;100.00
15193;BME280;7697;51.630;7.484;2022-12-24T19:22:31;100789.00;;;9.14;100.00
15193;BME280;7697;51.630;7.484;2022-12-24T19:27:33;100789.50;;;9.02;100.00
15193;BME280;7697;51.630;7.484;2022-12-24T19:32:36;100803.72;;;9.01;100.00
15193;BME280;7697;51.630;7.484;2022-12-24T19:37:38;100783.69;;;8.92;100.00
15193;BME280;7697;51.630;7.484;2022-12-24T19:42:40;100783.69;;;8.92;100.00
15193;BME280;7697;51.630;7.484;2022-12-24T19:47:43;100784.84;;;8.90;100.00
15193;BME280;7697;51.630;7.484;2022-12-24T19:52:45;100788.50;;;8.89;100.00
15193;BME280;7697;51.630;7.484;2022-12-24T19:57:47;100804.06;;;8.98;100.00
15193;BME280;7697;51.630;7.484;2022-12-24T20:02:50;100791.84;;;8.97;100.00
15193;BME280;7697;51.630;7.484;2022-12-24T20:07:51;100804.63;;;8.94;100.00
15193;BME280;7697;51.630;7.484;2022-12-24T20:12:53;100793.13;;;8.87;100.00
15193;BME280;7697;51.630;7.484;2022-12-24T20:17:57;100795.78;;;8.87;100.00
15193;BME280;7697;51.630;7.484;2022-12-24T20:22:59;100809.19;;;8.85;100.00
15193;BME280;7697;51.630;7.484;2022-12-24T20:28:01;100795.88;;;8.79;100.00
15193;BME280;7697;51.630;7.484;2022-12-24T20:33:04;100797.78;;;8.70;100.00
15193;BME280;7697;51.630;7.484;2022-12-24T20:38:06;100803.22;;;8.69;100.00
15193;BME280;7697;51.630;7.484;2022-12-24T20:43:08;100815.09;;;8.73;100.00
15193;BME280;7697;51.630;7.484;2022-12-24T20:48:11;100802.63;;;8.67;100.00
15193;BME280;7697;51.630;7.484;2022-12-24T20:53:13;100816.63;;;8.67;100.00
15193;BME280;7697;51.630;7.484;2022-12-24T20:58:14;100825.56;;;8.66;100.00
15193;BME280;7697;51.630;7.484;2022-12-24T21:03:19;100842.41;;;8.65;100.00
15193;BME280;7697;51.630;7.484;2022-12-24T21:08:20;100842.66;;;8.55;100.00
15193;BME280;7697;51.630;7.484;2022-12-24T21:13:22;100829.22;;;8.42;100.00
15193;BME280;7697;51.630;7.484;2022-12-24T21:18:25;100821.75;;;8.31;100.00
15193;BME280;7697;51.630;7.484;2022-12-24T21:23:26;100812.03;;;8.23;100.00
15193;BME280;7697;51.630;7.484;2022-12-24T21:28:28;100814.69;;;8.23;100.00
15193;BME280;7697;51.630;7.484;2022-12-24T21:33:31;100826.66;;;8.34;100.00
15193;BME280;7697;51.630;7.484;2022-12-24T21:38:33;100816.09;;;8.34;100.00
15193;BME280;7697;51.630;7.484;2022-12-24T21:43:36;100811.00;;;8.33;100.00
15193;BME280;7697;51.630;7.484;2022-12-24T21:48:39;100800.97;;;8.28;100.00
15193;BME280;7697;51.630;7.484;2022-12-24T21:53:58;100808.72;;;8.29;100.00
15193;BME280;7697;51.630;7.484;2022-12-24T21:59:33;100815.63;;;8.31;100.00
15193;BME280;7697;51.630;7.484;2022-12-24T22:04:36;100810.84;;;8.34;100.00
15193;BME280;7697;51.630;7.484;2022-12-24T22:09:38;100806.19;;;8.36;100.00
15193;BME280;7697;51.630;7.484;2022-12-24T22:14:57;100791.13;;;8.45;100.00
15193;BME280;7697;51.630;7.484;2022-12-24T22:20:00;100793.31;;;8.56;100.00
15193;BME280;7697;51.630;7.484;2022-12-24T22:25:03;100787.13;;;8.63;100.00
15193;BME280;7697;51.630;7.484;2022-12-24T22:30:06;100788.03;;;8.71;100.00
15193;BME280;7697;51.630;7.484;2022-12-24T22:35:09;100792.41;;;8.78;100.00
15193;BME280;7697;51.630;7.484;2022-12-24T22:40:11;100794.50;;;8.83;100.00
15193;BME280;7697;51.630;7.484;2022-12-24T22:45:13;100770.56;;;8.84;100.00
15193;BME280;7697;51.630;7.484;2022-12-24T22:50:16;100769.47;;;8.93;100.00
15193;BME280;7697;51.630;7.484;2022-12-24T22:55:18;100774.75;;;8.93;100.00
15193;BME280;7697;51.630;7.484;2022-12-24T23:00:36;100767.44;;;8.95;100.00
15193;BME280;7697;51.630;7.484;2022-12-24T23:05:40;100764.44;;;8.98;100.00
15193;BME280;7697;51.630;7.484;2022-12-24T23:10:41;100758.53;;;8.96;100.00
15193;BME280;7697;51.630;7.484;2022-12-24T23:15:43;100761.16;;;8.96;100.00
15193;BME280;7697;51.630;7.484;2022-12-24T23:20:46;100765.84;;;8.94;100.00
15193;BME280;7697;51.630;7.484;2022-12-24T23:25:47;100783.84;;;8.91;100.00
15193;BME280;7697;51.630;7.484;2022-12-24T23:30:56;100763.91;;;8.88;100.00
15193;BME280;7697;51.630;7.484;2022-12-24T23:35:59;100770.56;;;8.84;100.00
15193;BME280;7697;51.630;7.484;2022-12-24T23:41:03;100764.34;;;8.77;100.00
15193;BME280;7697;51.630;7.484;2022-12-24T23:46:05;100751.63;;;8.66;100.00
15193;BME280;7697;51.630;7.484;2022-12-24T23:51:10;100781.28;;;8.68;100.00
15193;BME280;7697;51.630;7.484;2022-12-24T23:56:12;100773.53;;;8.52;100.00
